sensor_id;sensor_type;location;lat;lon;timestamp;temperature;humidity
37846;DHT22;23686;49.828;8.702;2022-10-16T00:00:35;16.20;99.90
37846;DHT22;23686;49.828;8.702;2022-10-16T00:03:01;16.30;99.90
37846;DHT22;23686;49.828;8.702;2022-10-16T00:05:27;16.20;99.90
37846;DHT22;23686;49.828;8.702;2022-10-16T00:07:52;16.20;99.90
37846;DHT22;23686;49.828;8.702;2022-10-16T00:10:18;16.20;99.90
37846;DHT22;23686;49.828;8.702;2022-10-16T00:12:44;16.20;99.90
37846;DHT22;23686;49.828;8.702;2022-10-16T00:15:09;16.20;99.90
37846;DHT22;23686;49.828;8.702;2022-10-16T00:17:35;16.20;99.90
37846;DHT22;23686;49.828;8.702;2022-10-16T00:20:00;16.20;99.90
37846;DHT22;23686;49.828;8.702;2022-10-16T00:22:26;16.20;99.90
37846;DHT22;23686;49.828;8.702;2022-10-16T00:24:52;16.20;99.90
37846;DHT22;23686;49.828;8.702;2022-10-16T00:27:17;16.20;99.90
37846;DHT22;23686;49.828;8.702;2022-10-16T00:29:43;16.20;99.90
37846;DHT22;23686;49.828;8.702;2022-10-16T00:32:09;16.20;99.90
37846;DHT22;23686;49.828;8.702;2022-10-16T00:34:34;16.20;99.90
37846;DHT22;23686;49.828;8.702;2022-10-16T00:37:00;16.20;99.90
37846;DHT22;23686;49.828;8.702;2022-10-16T00:39:26;16.10;99.90
37846;DHT22;23686;49.828;8.702;2022-10-16T00:41:51;16.10;99.90
37846;DHT22;23686;49.828;8.702;2022-10-16T00:44:51;16.10;99.90
37846;DHT22;23686;49.828;8.702;2022-10-16T00:47:21;16.10;99.90
37846;DHT22;23686;49.828;8.702;2022-10-16T00:49:49;16.10;99.90
37846;DHT22;23686;49.828;8.702;2022-10-16T00:52:15;16.10;99.90
37846;DHT22;23686;49.828;8.702;2022-10-16T00:54:41;16.10;99.90
37846;DHT22;23686;49.828;8.702;2022-10-16T00:57:07;16.10;99.90
37846;DHT22;23686;49.828;8.702;2022-10-16T00:59:38;16.00;99.90
37846;DHT22;23686;49.828;8.702;2022-10-16T01:02:06;16.00;99.90
37846;DHT22;23686;49.828;8.702;2022-10-16T01:04:37;16.00;99.90
37846;DHT22;23686;49.828;8.702;2022-10-16T01:09:54;16.00;99.90
37846;DHT22;23686;49.828;8.702;2022-10-16T01:17:41;16.00;99.90
37846;DHT22;23686;49.828;8.702;2022-10-16T01:25:49;16.00;99.90
37846;DHT22;23686;49.828;8.702;2022-10-16T01:28:19;16.00;99.90
37846;DHT22;23686;49.828;8.702;2022-10-16T01:30:47;15.90;99.90
37846;DHT22;23686;49.828;8.702;2022-10-16T01:33:24;16.00;99.90
37846;DHT22;23686;49.828;8.702;2022-10-16T01:42:52;15.90;99.90
37846;DHT22;23686;49.828;8.702;2022-10-16T01:45:19;15.90;99.90
37846;DHT22;23686;49.828;8.702;2022-10-16T01:47:48;15.90;99.90
37846;DHT22;23686;49.828;8.702;2022-10-16T01:50:16;15.90;99.90
37846;DHT22;23686;49.828;8.702;2022-10-16T01:52:45;15.90;99.90
37846;DHT22;23686;49.828;8.702;2022-10-16T01:55:14;16.00;99.90
37846;DHT22;23686;49.828;8.702;2022-10-16T01:57:44;16.00;99.90
37846;DHT22;23686;49.828;8.702;2022-10-16T02:00:12;16.00;99.90
37846;DHT22;23686;49.828;8.702;2022-10-16T02:02:41;16.00;99.90
37846;DHT22;23686;49.828;8.702;2022-10-16T02:07:44;16.00;99.90
37846;DHT22;23686;49.828;8.702;2022-10-16T02:10:10;16.00;99.90
37846;DHT22;23686;49.828;8.702;2022-10-16T02:12:38;16.00;99.90
37846;DHT22;23686;49.828;8.702;2022-10-16T02:15:06;16.00;99.90
37846;DHT22;23686;49.828;8.702;2022-10-16T02:17:32;16.00;99.90
37846;DHT22;23686;49.828;8.702;2022-10-16T02:19:58;16.10;99.90
37846;DHT22;23686;49.828;8.702;2022-10-16T02:22:28;16.10;99.90
37846;DHT22;23686;49.828;8.702;2022-10-16T02:25:04;16.10;99.90
37846;DHT22;23686;49.828;8.702;2022-10-16T02:30:22;16.10;99.90
37846;DHT22;23686;49.828;8.702;2022-10-16T02:32:51;16.10;99.90
37846;DHT22;23686;49.828;8.702;2022-10-16T02:35:18;16.10;99.90
37846;DHT22;23686;49.828;8.702;2022-10-16T02:37:46;16.10;99.90
37846;DHT22;23686;49.828;8.702;2022-10-16T02:40:12;16.10;99.90
37846;DHT22;23686;49.828;8.702;2022-10-16T02:42:39;16.10;99.90
37846;DHT22;23686;49.828;8.702;2022-10-16T02:45:06;16.10;99.90
37846;DHT22;23686;49.828;8.702;2022-10-16T02:47:32;16.10;99.90
37846;DHT22;23686;49.828;8.702;2022-10-16T02:49:58;16.10;99.90
37846;DHT22;23686;49.828;8.702;2022-10-16T02:52:24;16.10;99.90
37846;DHT22;23686;49.828;8.702;2022-10-16T02:54:50;16.10;99.90
37846;DHT22;23686;49.828;8.702;2022-10-16T02:57:15;16.10;99.90
37846;DHT22;23686;49.828;8.702;2022-10-16T02:59:41;16.10;99.90
37846;DHT22;23686;49.828;8.702;2022-10-16T03:02:07;16.10;99.90
37846;DHT22;23686;49.828;8.702;2022-10-16T03:04:32;16.10;99.90
37846;DHT22;23686;49.828;8.702;2022-10-16T03:06:58;16.00;99.90
37846;DHT22;23686;49.828;8.702;2022-10-16T03:09:23;16.00;99.90
37846;DHT22;23686;49.828;8.702;2022-10-16T03:11:49;16.00;99.90
37846;DHT22;23686;49.828;8.702;2022-10-16T03:14:14;16.00;99.90
37846;DHT22;23686;49.828;8.702;2022-10-16T03:16:40;16.00;99.90
37846;DHT22;23686;49.828;8.702;2022-10-16T03:19:05;16.00;99.90
37846;DHT22;23686;49.828;8.702;2022-10-16T03:21:31;16.00;99.90
37846;DHT22;23686;49.828;8.702;2022-10-16T03:23:56;16.00;99.90
37846;DHT22;23686;49.828;8.702;2022-10-16T03:26:22;16.00;99.90
37846;DHT22;23686;49.828;8.702;2022-10-16T03:28:47;16.00;99.90
37846;DHT22;23686;49.828;8.702;2022-10-16T03:31:13;16.00;99.90
37846;DHT22;23686;49.828;8.702;2022-10-16T03:33:38;16.00;99.90
37846;DHT22;23686;49.828;8.702;2022-10-16T03:36:04;16.00;99.90
37846;DHT22;23686;49.828;8.702;2022-10-16T03:38:30;16.00;99.90
37846;DHT22;23686;49.828;8.702;2022-10-16T03:40:55;16.00;99.90
37846;DHT22;23686;49.828;8.702;2022-10-16T03:43:21;16.00;99.90
37846;DHT22;23686;49.828;8.702;2022-10-16T03:45:46;16.00;99.90
37846;DHT22;23686;49.828;8.702;2022-10-16T03:48:12;16.00;99.90
37846;DHT22;23686;49.828;8.702;2022-10-16T03:50:37;16.00;99.90
37846;DHT22;23686;49.828;8.702;2022-10-16T03:53:03;16.00;99.90
37846;DHT22;23686;49.828;8.702;2022-10-16T03:55:29;16.00;99.90
37846;DHT22;23686;49.828;8.702;2022-10-16T03:57:54;16.00;99.90
37846;DHT22;23686;49.828;8.702;2022-10-16T04:00:20;16.00;99.90
37846;DHT22;23686;49.828;8.702;2022-10-16T04:02:45;16.00;99.90
37846;DHT22;23686;49.828;8.702;2022-10-16T04:05:11;16.00;99.90
37846;DHT22;23686;49.828;8.702;2022-10-16T04:07:37;16.00;99.90
37846;DHT22;23686;49.828;8.702;2022-10-16T04:10:03;16.00;99.90
37846;DHT22;23686;49.828;8.702;2022-10-16T04:12:29;16.00;99.90
37846;DHT22;23686;49.828;8.702;2022-10-16T04:14:54;16.00;99.90
37846;DHT22;23686;49.828;8.702;2022-10-16T04:17:20;16.00;99.90
37846;DHT22;23686;49.828;8.702;2022-10-16T04:19:45;16.00;99.90
37846;DHT22;23686;49.828;8.702;2022-10-16T04:22:11;16.00;99.90
37846;DHT22;23686;49.828;8.702;2022-10-16T04:24:36;15.90;99.90
37846;DHT22;23686;49.828;8.702;2022-10-16T04:27:02;15.90;99.90
37846;DHT22;23686;49.828;8.702;2022-10-16T04:29:28;15.90;99.90
37846;DHT22;23686;49.828;8.702;2022-10-16T04:31:53;16.00;99.90
37846;DHT22;23686;49.828;8.702;2022-10-16T04:34:19;15.90;99.90
37846;DHT22;23686;49.828;8.702;2022-10-16T04:36:47;15.90;99.90
37846;DHT22;23686;49.828;8.702;2022-10-16T04:39:13;15.90;99.90
37846;DHT22;23686;49.828;8.702;2022-10-16T04:41:39;15.90;99.90
37846;DHT22;23686;49.828;8.702;2022-10-16T04:44:04;15.90;99.90
37846;DHT22;23686;49.828;8.702;2022-10-16T04:46:30;15.90;99.90
37846;DHT22;23686;49.828;8.702;2022-10-16T04:48:55;15.90;99.90
37846;DHT22;23686;49.828;8.702;2022-10-16T04:51:21;15.90;99.90
37846;DHT22;23686;49.828;8.702;2022-10-16T04:53:46;15.90;99.90
37846;DHT22;23686;49.828;8.702;2022-10-16T04:56:12;15.90;99.90
37846;DHT22;23686;49.828;8.702;2022-10-16T04:58:38;15.90;99.90
37846;DHT22;23686;49.828;8.702;2022-10-16T05:01:06;15.90;99.90
37846;DHT22;23686;49.828;8.702;2022-10-16T05:03:33;15.90;99.90
37846;DHT22;23686;49.828;8.702;2022-10-16T05:05:59;15.90;99.90
37846;DHT22;23686;49.828;8.702;2022-10-16T05:08:24;15.90;99.90
37846;DHT22;23686;49.828;8.702;2022-10-16T05:10:50;15.90;99.90
37846;DHT22;23686;49.828;8.702;2022-10-16T05:13:16;15.90;99.90
37846;DHT22;23686;49.828;8.702;2022-10-16T05:15:41;15.90;99.90
37846;DHT22;23686;49.828;8.702;2022-10-16T05:18:08;15.80;99.90
37846;DHT22;23686;49.828;8.702;2022-10-16T05:20:34;15.80;99.90
37846;DHT22;23686;49.828;8.702;2022-10-16T05:22:59;15.80;99.90
37846;DHT22;23686;49.828;8.702;2022-10-16T05:25:25;15.80;99.90
37846;DHT22;23686;49.828;8.702;2022-10-16T05:27:51;15.80;99.90
37846;DHT22;23686;49.828;8.702;2022-10-16T05:30:17;15.80;99.90
37846;DHT22;23686;49.828;8.702;2022-10-16T05:32:47;15.80;99.90
37846;DHT22;23686;49.828;8.702;2022-10-16T05:35:13;15.70;99.90
37846;DHT22;23686;49.828;8.702;2022-10-16T05:37:38;15.70;99.90
37846;DHT22;23686;49.828;8.702;2022-10-16T05:40:04;15.70;99.90
37846;DHT22;23686;49.828;8.702;2022-10-16T05:42:30;15.70;99.90
37846;DHT22;23686;49.828;8.702;2022-10-16T05:44:55;15.70;99.90
37846;DHT22;23686;49.828;8.702;2022-10-16T05:47:21;15.70;99.90
37846;DHT22;23686;49.828;8.702;2022-10-16T05:49:46;15.70;99.90
37846;DHT22;23686;49.828;8.702;2022-10-16T05:52:12;15.70;99.90
37846;DHT22;23686;49.828;8.702;2022-10-16T05:54:38;15.60;99.90
37846;DHT22;23686;49.828;8.702;2022-10-16T05:57:03;15.60;99.90
37846;DHT22;23686;49.828;8.702;2022-10-16T05:59:31;15.60;99.90
37846;DHT22;23686;49.828;8.702;2022-10-16T06:01:56;15.60;99.90
37846;DHT22;23686;49.828;8.702;2022-10-16T06:04:22;15.60;99.90
37846;DHT22;23686;49.828;8.702;2022-10-16T06:06:47;15.60;99.90
37846;DHT22;23686;49.828;8.702;2022-10-16T06:09:13;15.60;99.90
37846;DHT22;23686;49.828;8.702;2022-10-16T06:11:39;15.60;99.90
37846;DHT22;23686;49.828;8.702;2022-10-16T06:14:04;15.60;99.90
37846;DHT22;23686;49.828;8.702;2022-10-16T06:16:33;15.60;99.90
37846;DHT22;23686;49.828;8.702;2022-10-16T06:19:00;15.60;99.90
37846;DHT22;23686;49.828;8.702;2022-10-16T06:21:27;15.60;99.90
37846;DHT22;23686;49.828;8.702;2022-10-16T06:23:55;15.60;99.90
37846;DHT22;23686;49.828;8.702;2022-10-16T06:26:23;15.60;99.90
37846;DHT22;23686;49.828;8.702;2022-10-16T06:28:49;15.60;99.90
37846;DHT22;23686;49.828;8.702;2022-10-16T06:31:16;15.70;99.90
37846;DHT22;23686;49.828;8.702;2022-10-16T06:33:41;15.70;99.90
37846;DHT22;23686;49.828;8.702;2022-10-16T06:36:09;15.70;99.90
37846;DHT22;23686;49.828;8.702;2022-10-16T06:38:36;15.70;99.90
37846;DHT22;23686;49.828;8.702;2022-10-16T06:41:02;15.70;99.90
37846;DHT22;23686;49.828;8.702;2022-10-16T06:43:31;15.70;99.90
37846;DHT22;23686;49.828;8.702;2022-10-16T06:45:59;15.70;99.90
37846;DHT22;23686;49.828;8.702;2022-10-16T06:48:25;15.70;99.90
37846;DHT22;23686;49.828;8.702;2022-10-16T06:50:59;15.70;99.90
37846;DHT22;23686;49.828;8.702;2022-10-16T06:53:26;15.70;99.90
37846;DHT22;23686;49.828;8.702;2022-10-16T06:55:52;15.80;99.90
37846;DHT22;23686;49.828;8.702;2022-10-16T06:58:18;15.80;99.90
37846;DHT22;23686;49.828;8.702;2022-10-16T07:00:43;15.80;99.90
37846;DHT22;23686;49.828;8.702;2022-10-16T07:03:09;15.90;99.90
37846;DHT22;23686;49.828;8.702;2022-10-16T07:05:41;15.90;99.90
37846;DHT22;23686;49.828;8.702;2022-10-16T07:08:08;15.90;99.90
37846;DHT22;23686;49.828;8.702;2022-10-16T07:10:34;16.00;99.90
37846;DHT22;23686;49.828;8.702;2022-10-16T07:13:00;16.00;99.90
37846;DHT22;23686;49.828;8.702;2022-10-16T07:15:26;16.10;99.90
37846;DHT22;23686;49.828;8.702;2022-10-16T07:17:52;16.20;99.90
37846;DHT22;23686;49.828;8.702;2022-10-16T07:20:18;16.20;99.90
37846;DHT22;23686;49.828;8.702;2022-10-16T07:22:43;16.30;99.90
37846;DHT22;23686;49.828;8.702;2022-10-16T07:25:09;16.30;99.90
37846;DHT22;23686;49.828;8.702;2022-10-16T07:27:35;16.30;99.90
37846;DHT22;23686;49.828;8.702;2022-10-16T07:30:01;16.40;99.90
37846;DHT22;23686;49.828;8.702;2022-10-16T07:32:27;16.40;99.90
37846;DHT22;23686;49.828;8.702;2022-10-16T07:34:52;16.50;99.90
37846;DHT22;23686;49.828;8.702;2022-10-16T07:37:18;16.50;99.90
37846;DHT22;23686;49.828;8.702;2022-10-16T07:39:44;16.60;99.90
37846;DHT22;23686;49.828;8.702;2022-10-16T07:42:09;16.60;99.90
37846;DHT22;23686;49.828;8.702;2022-10-16T07:44:35;16.60;99.90
37846;DHT22;23686;49.828;8.702;2022-10-16T07:47:01;16.70;99.90
37846;DHT22;23686;49.828;8.702;2022-10-16T07:49:27;16.70;99.90
37846;DHT22;23686;49.828;8.702;2022-10-16T07:51:52;16.70;99.90
37846;DHT22;23686;49.828;8.702;2022-10-16T07:54:18;16.70;99.90
37846;DHT22;23686;49.828;8.702;2022-10-16T07:56:43;16.80;99.90
37846;DHT22;23686;49.828;8.702;2022-10-16T07:59:09;16.80;99.90
37846;DHT22;23686;49.828;8.702;2022-10-16T08:01:34;16.80;99.90
37846;DHT22;23686;49.828;8.702;2022-10-16T08:04:00;16.80;99.90
37846;DHT22;23686;49.828;8.702;2022-10-16T08:06:25;16.80;99.90
37846;DHT22;23686;49.828;8.702;2022-10-16T08:08:51;16.90;99.90
37846;DHT22;23686;49.828;8.702;2022-10-16T08:11:17;16.90;99.90
37846;DHT22;23686;49.828;8.702;2022-10-16T08:13:42;16.90;99.90
37846;DHT22;23686;49.828;8.702;2022-10-16T08:16:08;17.00;99.90
37846;DHT22;23686;49.828;8.702;2022-10-16T08:18:36;17.00;99.90
37846;DHT22;23686;49.828;8.702;2022-10-16T08:21:02;17.10;99.90
37846;DHT22;23686;49.828;8.702;2022-10-16T08:23:29;17.10;99.90
37846;DHT22;23686;49.828;8.702;2022-10-16T08:25:55;17.20;99.90
37846;DHT22;23686;49.828;8.702;2022-10-16T08:28:21;17.20;99.90
37846;DHT22;23686;49.828;8.702;2022-10-16T08:30:47;17.20;99.90
37846;DHT22;23686;49.828;8.702;2022-10-16T08:33:13;17.20;99.90
37846;DHT22;23686;49.828;8.702;2022-10-16T08:35:39;17.20;99.90
37846;DHT22;23686;49.828;8.702;2022-10-16T08:38:06;17.20;99.90
37846;DHT22;23686;49.828;8.702;2022-10-16T08:40:33;17.10;99.90
37846;DHT22;23686;49.828;8.702;2022-10-16T08:45:44;17.00;99.90
37846;DHT22;23686;49.828;8.702;2022-10-16T08:50:48;16.90;99.90
37846;DHT22;23686;49.828;8.702;2022-10-16T08:53:18;16.90;99.90
37846;DHT22;23686;49.828;8.702;2022-10-16T08:58:36;16.80;99.90
37846;DHT22;23686;49.828;8.702;2022-10-16T09:01:03;16.80;99.90
37846;DHT22;23686;49.828;8.702;2022-10-16T09:12:22;16.80;99.90
37846;DHT22;23686;49.828;8.702;2022-10-16T09:15:23;16.90;99.90
37846;DHT22;23686;49.828;8.702;2022-10-16T09:20:38;17.00;99.90
37846;DHT22;23686;49.828;8.702;2022-10-16T09:23:16;17.10;99.90
37846;DHT22;23686;49.828;8.702;2022-10-16T09:25:45;17.10;99.90
37846;DHT22;23686;49.828;8.702;2022-10-16T09:28:32;17.20;99.90
37846;DHT22;23686;49.828;8.702;2022-10-16T09:30:58;17.30;99.90
37846;DHT22;23686;49.828;8.702;2022-10-16T09:33:29;17.40;99.90
37846;DHT22;23686;49.828;8.702;2022-10-16T09:35:56;17.50;99.90
37846;DHT22;23686;49.828;8.702;2022-10-16T09:40:58;17.80;99.90
37846;DHT22;23686;49.828;8.702;2022-10-16T09:43:39;17.90;99.90
37846;DHT22;23686;49.828;8.702;2022-10-16T09:48:54;18.10;99.90
37846;DHT22;23686;49.828;8.702;2022-10-16T09:51:38;18.30;99.90
37846;DHT22;23686;49.828;8.702;2022-10-16T09:56:36;18.50;99.90
37846;DHT22;23686;49.828;8.702;2022-10-16T09:59:11;18.60;99.90
37846;DHT22;23686;49.828;8.702;2022-10-16T10:01:49;18.60;99.90
37846;DHT22;23686;49.828;8.702;2022-10-16T10:04:17;18.70;99.90
37846;DHT22;23686;49.828;8.702;2022-10-16T10:06:46;18.70;99.90
37846;DHT22;23686;49.828;8.702;2022-10-16T10:09:38;18.80;99.90
37846;DHT22;23686;49.828;8.702;2022-10-16T10:12:19;18.80;99.90
37846;DHT22;23686;49.828;8.702;2022-10-16T10:14:48;18.90;99.90
37846;DHT22;23686;49.828;8.702;2022-10-16T10:17:23;18.90;99.90
37846;DHT22;23686;49.828;8.702;2022-10-16T10:19:54;19.00;99.90
37846;DHT22;23686;49.828;8.702;2022-10-16T10:22:39;19.10;99.90
37846;DHT22;23686;49.828;8.702;2022-10-16T10:38:43;19.60;99.90
37846;DHT22;23686;49.828;8.702;2022-10-16T10:41:25;19.60;99.90
37846;DHT22;23686;49.828;8.702;2022-10-16T10:47:00;19.70;99.90
37846;DHT22;23686;49.828;8.702;2022-10-16T10:55:03;19.60;99.90
37846;DHT22;23686;49.828;8.702;2022-10-16T10:57:49;19.60;99.90
37846;DHT22;23686;49.828;8.702;2022-10-16T11:05:45;19.60;99.90
37846;DHT22;23686;49.828;8.702;2022-10-16T11:08:19;19.60;99.90
37846;DHT22;23686;49.828;8.702;2022-10-16T11:11:09;19.60;99.90
37846;DHT22;23686;49.828;8.702;2022-10-16T11:13:55;19.60;99.90
37846;DHT22;23686;49.828;8.702;2022-10-16T11:16:37;19.70;99.90
37846;DHT22;23686;49.828;8.702;2022-10-16T11:19:28;19.70;99.90
37846;DHT22;23686;49.828;8.702;2022-10-16T11:25:04;19.60;99.90
37846;DHT22;23686;49.828;8.702;2022-10-16T11:28:20;19.50;99.90
37846;DHT22;23686;49.828;8.702;2022-10-16T11:30:29;19.50;99.90
37846;DHT22;23686;49.828;8.702;2022-10-16T11:35:48;19.50;99.90
37846;DHT22;23686;49.828;8.702;2022-10-16T11:41:39;19.60;99.90
37846;DHT22;23686;49.828;8.702;2022-10-16T11:44:48;19.60;99.90
37846;DHT22;23686;49.828;8.702;2022-10-16T11:50:42;19.60;99.90
37846;DHT22;23686;49.828;8.702;2022-10-16T11:59:55;19.60;99.90
37846;DHT22;23686;49.828;8.702;2022-10-16T12:08:28;19.60;99.90
37846;DHT22;23686;49.828;8.702;2022-10-16T12:11:31;19.60;99.90
37846;DHT22;23686;49.828;8.702;2022-10-16T12:16:57;19.70;99.90
37846;DHT22;23686;49.828;8.702;2022-10-16T12:19:57;19.70;99.90
37846;DHT22;23686;49.828;8.702;2022-10-16T12:22:29;19.70;99.90
37846;DHT22;23686;49.828;8.702;2022-10-16T12:24:57;19.80;99.90
37846;DHT22;23686;49.828;8.702;2022-10-16T12:46:33;19.70;99.90
37846;DHT22;23686;49.828;8.702;2022-10-16T12:49:22;19.80;99.90
37846;DHT22;23686;49.828;8.702;2022-10-16T12:52:41;19.80;99.90
37846;DHT22;23686;49.828;8.702;2022-10-16T12:55:42;19.80;99.90
37846;DHT22;23686;49.828;8.702;2022-10-16T13:01:36;19.90;99.90
37846;DHT22;23686;49.828;8.702;2022-10-16T13:07:41;19.90;99.90
37846;DHT22;23686;49.828;8.702;2022-10-16T13:13:23;20.00;99.90
37846;DHT22;23686;49.828;8.702;2022-10-16T13:19:01;20.10;99.90
37846;DHT22;23686;49.828;8.702;2022-10-16T13:21:48;20.10;99.90
37846;DHT22;23686;49.828;8.702;2022-10-16T13:27:13;20.00;99.90
37846;DHT22;23686;49.828;8.702;2022-10-16T13:29:43;20.00;99.90
37846;DHT22;23686;49.828;8.702;2022-10-16T13:32:11;19.90;99.90
37846;DHT22;23686;49.828;8.702;2022-10-16T13:34:47;19.90;99.90
37846;DHT22;23686;49.828;8.702;2022-10-16T13:37:25;19.80;99.90
37846;DHT22;23686;49.828;8.702;2022-10-16T13:39:50;19.80;99.90
37846;DHT22;23686;49.828;8.702;2022-10-16T13:42:26;19.70;99.90
37846;DHT22;23686;49.828;8.702;2022-10-16T13:44:53;19.70;99.90
37846;DHT22;23686;49.828;8.702;2022-10-16T13:57:25;19.50;99.90
37846;DHT22;23686;49.828;8.702;2022-10-16T13:59:53;19.50;99.90
37846;DHT22;23686;49.828;8.702;2022-10-16T14:02:32;19.50;99.90
37846;DHT22;23686;49.828;8.702;2022-10-16T14:05:02;19.40;99.90
37846;DHT22;23686;49.828;8.702;2022-10-16T14:07:31;19.40;99.90
37846;DHT22;23686;49.828;8.702;2022-10-16T14:10:29;19.30;99.90
37846;DHT22;23686;49.828;8.702;2022-10-16T14:13:04;19.30;99.90
37846;DHT22;23686;49.828;8.702;2022-10-16T14:15:31;19.30;99.90
37846;DHT22;23686;49.828;8.702;2022-10-16T14:17:58;19.30;99.90
37846;DHT22;23686;49.828;8.702;2022-10-16T14:30:30;19.30;99.90
37846;DHT22;23686;49.828;8.702;2022-10-16T14:33:06;19.30;99.90
37846;DHT22;23686;49.828;8.702;2022-10-16T14:35:37;19.30;99.90
37846;DHT22;23686;49.828;8.702;2022-10-16T14:38:05;19.30;99.90
37846;DHT22;23686;49.828;8.702;2022-10-16T14:40:34;19.30;99.90
37846;DHT22;23686;49.828;8.702;2022-10-16T14:43:01;19.30;99.90
37846;DHT22;23686;49.828;8.702;2022-10-16T14:45:31;19.30;99.90
37846;DHT22;23686;49.828;8.702;2022-10-16T14:47:58;19.30;99.90
37846;DHT22;23686;49.828;8.702;2022-10-16T14:50:26;19.30;99.90
37846;DHT22;23686;49.828;8.702;2022-10-16T14:52:52;19.20;99.90
37846;DHT22;23686;49.828;8.702;2022-10-16T14:55:18;19.20;99.90
37846;DHT22;23686;49.828;8.702;2022-10-16T14:57:44;19.20;99.90
37846;DHT22;23686;49.828;8.702;2022-10-16T15:03:33;19.20;99.90
37846;DHT22;23686;49.828;8.702;2022-10-16T15:09:51;19.20;99.90
37846;DHT22;23686;49.828;8.702;2022-10-16T15:12:18;19.20;99.90
37846;DHT22;23686;49.828;8.702;2022-10-16T15:18:05;19.20;99.90
37846;DHT22;23686;49.828;8.702;2022-10-16T15:20:36;19.20;99.90
37846;DHT22;23686;49.828;8.702;2022-10-16T15:26:28;19.20;99.90
37846;DHT22;23686;49.828;8.702;2022-10-16T15:45:42;19.10;99.90
37846;DHT22;23686;49.828;8.702;2022-10-16T15:48:12;19.10;99.90
37846;DHT22;23686;49.828;8.702;2022-10-16T15:50:39;19.10;99.90
37846;DHT22;23686;49.828;8.702;2022-10-16T15:59:48;19.00;99.90
37846;DHT22;23686;49.828;8.702;2022-10-16T16:05:38;18.90;99.90
37846;DHT22;23686;49.828;8.702;2022-10-16T16:08:04;18.90;99.90
37846;DHT22;23686;49.828;8.702;2022-10-16T16:10:30;18.80;99.90
37846;DHT22;23686;49.828;8.702;2022-10-16T16:12:55;18.80;99.90
37846;DHT22;23686;49.828;8.702;2022-10-16T16:15:22;18.70;99.90
37846;DHT22;23686;49.828;8.702;2022-10-16T16:17:48;18.70;99.90
37846;DHT22;23686;49.828;8.702;2022-10-16T16:20:14;18.60;99.90
37846;DHT22;23686;49.828;8.702;2022-10-16T16:22:40;18.60;99.90
37846;DHT22;23686;49.828;8.702;2022-10-16T16:25:06;18.50;99.90
37846;DHT22;23686;49.828;8.702;2022-10-16T16:30:54;18.50;99.90
37846;DHT22;23686;49.828;8.702;2022-10-16T16:33:19;18.40;99.90
37846;DHT22;23686;49.828;8.702;2022-10-16T16:35:45;18.40;99.90
37846;DHT22;23686;49.828;8.702;2022-10-16T16:38:10;18.30;99.90
37846;DHT22;23686;49.828;8.702;2022-10-16T16:40:36;18.30;99.90
37846;DHT22;23686;49.828;8.702;2022-10-16T16:43:01;18.30;99.90
37846;DHT22;23686;49.828;8.702;2022-10-16T16:45:27;18.20;99.90
37846;DHT22;23686;49.828;8.702;2022-10-16T16:47:53;18.20;99.90
37846;DHT22;23686;49.828;8.702;2022-10-16T16:50:19;18.20;99.90
37846;DHT22;23686;49.828;8.702;2022-10-16T16:52:44;18.10;99.90
37846;DHT22;23686;49.828;8.702;2022-10-16T16:55:10;18.10;99.90
37846;DHT22;23686;49.828;8.702;2022-10-16T16:57:35;18.10;99.90
37846;DHT22;23686;49.828;8.702;2022-10-16T17:00:01;18.10;99.90
37846;DHT22;23686;49.828;8.702;2022-10-16T17:02:26;18.00;99.90
37846;DHT22;23686;49.828;8.702;2022-10-16T17:04:52;18.00;99.90
37846;DHT22;23686;49.828;8.702;2022-10-16T17:10:43;17.90;99.90
37846;DHT22;23686;49.828;8.702;2022-10-16T17:13:09;17.90;99.90
37846;DHT22;23686;49.828;8.702;2022-10-16T17:15:35;17.90;99.90
37846;DHT22;23686;49.828;8.702;2022-10-16T17:18:00;17.80;99.90
37846;DHT22;23686;49.828;8.702;2022-10-16T17:20:26;17.80;99.90
37846;DHT22;23686;49.828;8.702;2022-10-16T17:22:51;17.80;99.90
37846;DHT22;23686;49.828;8.702;2022-10-16T17:25:17;17.80;99.90
37846;DHT22;23686;49.828;8.702;2022-10-16T17:27:43;17.80;99.90
37846;DHT22;23686;49.828;8.702;2022-10-16T17:30:09;17.80;99.90
37846;DHT22;23686;49.828;8.702;2022-10-16T17:32:35;17.70;99.90
37846;DHT22;23686;49.828;8.702;2022-10-16T17:35:00;17.70;99.90
37846;DHT22;23686;49.828;8.702;2022-10-16T17:37:26;17.60;99.90
37846;DHT22;23686;49.828;8.702;2022-10-16T17:39:51;17.60;99.90
37846;DHT22;23686;49.828;8.702;2022-10-16T17:42:17;17.60;99.90
37846;DHT22;23686;49.828;8.702;2022-10-16T17:44:42;17.60;99.90
37846;DHT22;23686;49.828;8.702;2022-10-16T17:47:08;17.50;99.90
37846;DHT22;23686;49.828;8.702;2022-10-16T17:49:33;17.50;99.90
37846;DHT22;23686;49.828;8.702;2022-10-16T17:51:59;17.40;99.90
37846;DHT22;23686;49.828;8.702;2022-10-16T17:54:27;17.40;99.90
37846;DHT22;23686;49.828;8.702;2022-10-16T17:56:52;17.30;99.90
37846;DHT22;23686;49.828;8.702;2022-10-16T17:59:18;17.30;99.90
37846;DHT22;23686;49.828;8.702;2022-10-16T18:01:47;17.20;99.90
37846;DHT22;23686;49.828;8.702;2022-10-16T18:04:15;17.20;99.90
37846;DHT22;23686;49.828;8.702;2022-10-16T18:06:42;17.10;99.90
37846;DHT22;23686;49.828;8.702;2022-10-16T18:09:09;17.10;99.90
37846;DHT22;23686;49.828;8.702;2022-10-16T18:11:36;17.10;99.90
37846;DHT22;23686;49.828;8.702;2022-10-16T18:14:02;17.00;99.90
37846;DHT22;23686;49.828;8.702;2022-10-16T18:16:30;17.00;99.90
37846;DHT22;23686;49.828;8.702;2022-10-16T18:18:56;16.90;99.90
37846;DHT22;23686;49.828;8.702;2022-10-16T18:21:23;16.90;99.90
37846;DHT22;23686;49.828;8.702;2022-10-16T18:23:52;16.80;99.90
37846;DHT22;23686;49.828;8.702;2022-10-16T18:26:19;16.80;99.90
37846;DHT22;23686;49.828;8.702;2022-10-16T18:28:44;16.80;99.90
37846;DHT22;23686;49.828;8.702;2022-10-16T18:31:13;16.80;99.90
37846;DHT22;23686;49.828;8.702;2022-10-16T18:33:39;16.80;99.90
37846;DHT22;23686;49.828;8.702;2022-10-16T18:36:07;16.70;99.90
37846;DHT22;23686;49.828;8.702;2022-10-16T18:38:33;16.70;99.90
37846;DHT22;23686;49.828;8.702;2022-10-16T18:40:59;16.60;99.90
37846;DHT22;23686;49.828;8.702;2022-10-16T18:43:27;16.50;99.90
37846;DHT22;23686;49.828;8.702;2022-10-16T18:46:01;16.50;99.90
37846;DHT22;23686;49.828;8.702;2022-10-16T18:48:28;16.50;99.90
37846;DHT22;23686;49.828;8.702;2022-10-16T18:51:09;16.40;99.90
37846;DHT22;23686;49.828;8.702;2022-10-16T18:53:36;16.40;99.90
37846;DHT22;23686;49.828;8.702;2022-10-16T18:56:02;16.30;99.90
37846;DHT22;23686;49.828;8.702;2022-10-16T18:58:28;16.30;99.90
37846;DHT22;23686;49.828;8.702;2022-10-16T19:00:53;16.30;99.90
37846;DHT22;23686;49.828;8.702;2022-10-16T19:03:19;16.30;99.90
37846;DHT22;23686;49.828;8.702;2022-10-16T19:05:44;16.30;99.90
37846;DHT22;23686;49.828;8.702;2022-10-16T19:08:13;16.20;99.90
37846;DHT22;23686;49.828;8.702;2022-10-16T19:10:39;16.20;99.90